Aviation Digital Data Service (ADDS)

Output produced by METARs form (0542 UTC 28 September 2022)
found at http://www.aviationweather.gov/metar/data/
 
KGSO 280522Z 2806/2906 35003KT P6SM SCT250 
     FM281400 01010G16KT P6SM BKN250 
     FM282300 02009KT P6SM BKN250